createdAt,value
2023-05-11T00:01:33.763Z,100.00
2023-05-11T00:04:00.939Z,100.00
2023-05-11T00:06:27.566Z,100.00
2023-05-11T00:08:54.205Z,100.00
2023-05-11T00:11:21.079Z,100.00
2023-05-11T00:13:47.738Z,100.00
2023-05-11T00:16:14.794Z,100.00
2023-05-11T00:18:41.471Z,100.00
2023-05-11T00:21:08.130Z,100.00
2023-05-11T00:23:34.840Z,100.00
2023-05-11T00:26:01.592Z,100.00
2023-05-11T00:28:28.114Z,100.00
2023-05-11T00:30:58.233Z,100.00
2023-05-11T00:33:24.998Z,100.00
2023-05-11T00:35:52.060Z,100.00
2023-05-11T00:38:18.533Z,100.00
2023-05-11T00:40:46.491Z,100.00
2023-05-11T00:43:13.235Z,100.00
2023-05-11T00:45:40.524Z,100.00
2023-05-11T00:48:07.561Z,100.00
2023-05-11T00:50:36.020Z,100.00
2023-05-11T00:53:03.276Z,100.00
2023-05-11T00:55:30.509Z,100.00
2023-05-11T00:57:57.259Z,100.00
2023-05-11T01:00:23.864Z,100.00
2023-05-11T01:02:51.327Z,100.00
2023-05-11T01:05:18.052Z,100.00
2023-05-11T01:07:50.681Z,100.00
2023-05-11T01:10:44.668Z,100.00
2023-05-11T01:13:32.701Z,100.00
2023-05-11T01:16:06.474Z,100.00
2023-05-11T01:18:46.974Z,100.00
2023-05-11T01:21:17.321Z,100.00
2023-05-11T01:23:51.451Z,100.00
2023-05-11T01:26:54.344Z,100.00
2023-05-11T01:29:48.978Z,100.00
2023-05-11T01:32:19.682Z,100.00
2023-05-11T01:34:48.406Z,100.00
2023-05-11T01:37:23.945Z,100.00
2023-05-11T01:39:55.120Z,100.00
2023-05-11T01:42:38.378Z,100.00
2023-05-11T01:45:07.908Z,100.00
2023-05-11T01:47:37.333Z,100.00
2023-05-11T01:50:06.071Z,100.00
2023-05-11T01:52:36.413Z,100.00
2023-05-11T01:55:06.491Z,100.00
2023-05-11T01:57:36.586Z,100.00
2023-05-11T02:00:04.192Z,100.00
2023-05-11T02:02:40.519Z,100.00
2023-05-11T02:05:07.912Z,100.00
2023-05-11T02:07:36.388Z,100.00
2023-05-11T02:10:03.174Z,100.00
2023-05-11T02:12:33.932Z,100.00
2023-05-11T02:15:03.240Z,100.00
2023-05-11T02:17:30.856Z,100.00
2023-05-11T02:19:59.263Z,100.00
2023-05-11T02:22:27.409Z,100.00
2023-05-11T02:24:53.995Z,100.00
2023-05-11T02:27:20.793Z,100.00
2023-05-11T02:29:47.557Z,100.00
2023-05-11T02:32:18.144Z,100.00
2023-05-11T02:34:50.160Z,100.00
2023-05-11T02:37:23.734Z,100.00
2023-05-11T02:39:59.325Z,100.00
2023-05-11T02:42:28.959Z,100.00
2023-05-11T02:45:17.803Z,100.00
2023-05-11T02:47:54.715Z,100.00
2023-05-11T02:50:26.017Z,100.00
2023-05-11T02:52:55.646Z,100.00
2023-05-11T02:55:23.632Z,100.00
2023-05-11T02:57:50.657Z,100.00
2023-05-11T03:00:18.071Z,100.00
2023-05-11T03:02:45.332Z,100.00
2023-05-11T03:05:12.349Z,100.00
2023-05-11T03:07:38.969Z,100.00
2023-05-11T03:10:07.307Z,100.00
2023-05-11T03:12:38.371Z,100.00
2023-05-11T03:15:07.519Z,100.00
2023-05-11T03:17:39.414Z,100.00
2023-05-11T03:20:07.625Z,100.00
2023-05-11T03:22:36.950Z,100.00
2023-05-11T03:25:05.870Z,100.00
2023-05-11T03:27:34.117Z,100.00
2023-05-11T03:30:04.724Z,100.00
2023-05-11T03:32:37.954Z,100.00
2023-05-11T03:35:05.278Z,100.00
2023-05-11T03:37:32.573Z,100.00
2023-05-11T03:40:01.078Z,100.00
2023-05-11T03:42:38.590Z,100.00
2023-05-11T03:45:08.999Z,100.00
2023-05-11T03:47:38.322Z,100.00
2023-05-11T03:50:07.249Z,100.00
2023-05-11T03:52:35.631Z,100.00
2023-05-11T03:55:03.588Z,100.00
2023-05-11T03:57:30.740Z,100.00
2023-05-11T03:59:57.248Z,100.00
2023-05-11T04:02:24.728Z,100.00
2023-05-11T04:04:53.048Z,100.00
2023-05-11T04:07:20.256Z,100.00
2023-05-11T04:09:47.142Z,100.00
2023-05-11T04:12:13.648Z,100.00
2023-05-11T04:14:41.810Z,100.00
2023-05-11T04:17:08.332Z,100.00
2023-05-11T04:19:34.792Z,100.00
2023-05-11T04:22:01.323Z,100.00
2023-05-11T04:24:28.057Z,100.00
2023-05-11T04:26:57.871Z,100.00
2023-05-11T04:29:25.357Z,100.00
2023-05-11T04:31:53.612Z,100.00
2023-05-11T04:34:20.313Z,100.00
2023-05-11T04:36:50.262Z,100.00
2023-05-11T04:39:18.863Z,100.00
2023-05-11T04:41:45.600Z,100.00
2023-05-11T04:44:12.275Z,100.00
2023-05-11T04:46:38.939Z,100.00
2023-05-11T04:49:06.870Z,100.00
2023-05-11T04:51:37.735Z,100.00
2023-05-11T04:54:04.263Z,100.00
2023-05-11T04:56:30.921Z,100.00
2023-05-11T04:58:59.165Z,100.00
2023-05-11T05:01:25.787Z,100.00
2023-05-11T05:03:52.416Z,100.00
2023-05-11T05:06:18.919Z,100.00
2023-05-11T05:08:45.500Z,100.00
2023-05-11T05:11:12.074Z,100.00
2023-05-11T05:13:38.948Z,100.00
2023-05-11T05:16:05.868Z,100.00
2023-05-11T05:18:32.643Z,100.00
2023-05-11T05:20:59.836Z,100.00
2023-05-11T05:23:26.814Z,100.00
2023-05-11T05:25:53.615Z,100.00
2023-05-11T05:28:20.745Z,100.00
2023-05-11T05:30:47.490Z,100.00
2023-05-11T05:33:14.955Z,100.00
2023-05-11T05:35:43.824Z,100.00
2023-05-11T05:38:10.904Z,100.00
2023-05-11T05:40:39.395Z,100.00
2023-05-11T05:43:06.834Z,100.00
2023-05-11T05:45:33.743Z,100.00
2023-05-11T05:48:01.169Z,100.00
2023-05-11T05:50:27.842Z,100.00
2023-05-11T05:52:54.428Z,100.00
2023-05-11T05:55:23.911Z,100.00
2023-05-11T05:57:51.270Z,100.00
2023-05-11T06:00:18.302Z,100.00
2023-05-11T06:02:52.683Z,100.00
2023-05-11T06:05:24.231Z,100.00
2023-05-11T06:08:01.753Z,100.00
2023-05-11T06:10:36.673Z,100.00
2023-05-11T06:13:03.366Z,100.00
2023-05-11T06:15:29.991Z,100.00
2023-05-11T06:18:02.826Z,100.00
2023-05-11T06:20:31.797Z,100.00
2023-05-11T06:22:58.601Z,100.00
2023-05-11T06:25:25.978Z,100.00
2023-05-11T06:27:52.460Z,100.00
2023-05-11T06:30:19.554Z,100.00
2023-05-11T06:32:48.298Z,100.00
2023-05-11T06:35:17.883Z,100.00
2023-05-11T06:37:45.342Z,100.00
2023-05-11T06:40:13.451Z,100.00
2023-05-11T06:42:41.045Z,100.00
2023-05-11T06:45:10.356Z,100.00
2023-05-11T06:47:37.007Z,100.00
2023-05-11T06:50:04.144Z,100.00
2023-05-11T06:52:30.745Z,100.00
2023-05-11T06:55:01.576Z,100.00
2023-05-11T06:57:28.185Z,100.00
2023-05-11T06:59:54.782Z,100.00
2023-05-11T07:02:21.264Z,100.00
2023-05-11T07:04:50.447Z,100.00
2023-05-11T07:07:16.954Z,100.00
2023-05-11T07:09:43.850Z,100.00
2023-05-11T07:12:10.541Z,100.00
2023-05-11T07:14:38.634Z,100.00
2023-05-11T07:17:05.344Z,100.00
2023-05-11T07:19:32.128Z,100.00
2023-05-11T07:21:58.742Z,100.00
2023-05-11T07:24:25.478Z,100.00
2023-05-11T07:26:52.056Z,100.00
2023-05-11T07:29:18.811Z,100.00
2023-05-11T07:31:45.411Z,100.00
2023-05-11T07:34:11.971Z,100.00
2023-05-11T07:36:38.486Z,100.00
2023-05-11T07:39:04.984Z,100.00
2023-05-11T07:41:31.505Z,100.00
2023-05-11T07:44:00.271Z,100.00
2023-05-11T07:46:26.828Z,100.00
2023-05-11T07:49:03.359Z,100.00
2023-05-11T07:51:40.035Z,100.00
2023-05-11T07:54:06.589Z,100.00
2023-05-11T07:56:33.154Z,100.00
2023-05-11T07:58:59.606Z,100.00
2023-05-11T08:01:27.642Z,100.00
2023-05-11T08:03:54.107Z,100.00
2023-05-11T08:06:20.633Z,100.00
2023-05-11T08:08:47.178Z,100.00
2023-05-11T08:11:13.627Z,100.00
2023-05-11T08:13:40.312Z,100.00
2023-05-11T08:16:07.141Z,100.00
2023-05-11T08:18:33.746Z,100.00
2023-05-11T08:21:00.268Z,100.00
2023-05-11T08:23:26.908Z,100.00
2023-05-11T08:25:55.209Z,100.00
2023-05-11T08:28:22.171Z,100.00
2023-05-11T08:30:58.903Z,100.00
2023-05-11T08:33:36.474Z,100.00
2023-05-11T08:36:06.119Z,100.00
2023-05-11T08:38:33.316Z,100.00
2023-05-11T08:41:01.809Z,100.00
2023-05-11T08:43:30.328Z,100.00
2023-05-11T08:46:02.749Z,100.00
2023-05-11T08:48:29.422Z,100.00
2023-05-11T08:50:56.004Z,100.00
2023-05-11T08:53:22.903Z,100.00
2023-05-11T08:55:51.617Z,100.00
2023-05-11T08:58:21.776Z,100.00
2023-05-11T09:00:49.786Z,100.00
2023-05-11T09:03:17.950Z,100.00
2023-05-11T09:05:46.667Z,100.00
2023-05-11T09:08:15.067Z,100.00
2023-05-11T09:10:43.645Z,100.00
2023-05-11T09:13:11.137Z,100.00
2023-05-11T09:15:38.287Z,100.00
2023-05-11T09:18:05.379Z,99.06
2023-05-11T09:20:33.675Z,98.14
2023-05-11T09:23:01.269Z,97.06
2023-05-11T09:25:33.543Z,97.82
2023-05-11T09:28:00.859Z,96.24
2023-05-11T09:30:27.655Z,96.21
2023-05-11T09:32:58.226Z,96.27
2023-05-11T09:35:29.125Z,95.07
2023-05-11T09:38:09.858Z,94.87
2023-05-11T09:40:37.747Z,94.48
2023-05-11T09:43:17.369Z,94.69
2023-05-11T09:45:46.070Z,94.47
2023-05-11T09:48:21.503Z,93.80
2023-05-11T09:50:49.382Z,94.43
2023-05-11T09:53:16.894Z,94.79
2023-05-11T09:55:51.889Z,93.80
2023-05-11T09:58:18.462Z,92.16
2023-05-11T10:00:54.089Z,91.45
2023-05-11T10:03:20.946Z,91.61
2023-05-11T10:05:59.533Z,89.62
2023-05-11T10:08:30.674Z,88.70
2023-05-11T10:10:57.736Z,87.02
2023-05-11T10:13:24.848Z,85.71
2023-05-11T10:15:52.275Z,85.39
2023-05-11T10:18:20.464Z,82.16
2023-05-11T10:20:47.459Z,82.48
2023-05-11T10:23:15.116Z,82.27
2023-05-11T10:25:42.576Z,82.93
2023-05-11T10:28:10.541Z,82.63
2023-05-11T10:30:37.436Z,83.00
2023-05-11T10:33:06.603Z,82.05
2023-05-11T10:35:33.597Z,82.33
2023-05-11T10:38:01.029Z,83.63
2023-05-11T10:40:28.058Z,84.42
2023-05-11T10:43:17.192Z,84.42
2023-05-11T10:46:01.362Z,84.70
2023-05-11T10:49:05.855Z,84.33
2023-05-11T10:52:07.622Z,82.58
2023-05-11T10:54:49.138Z,82.00
2023-05-11T10:57:49.687Z,81.79
2023-05-11T11:00:48.678Z,80.81
2023-05-11T11:03:15.667Z,82.17
2023-05-11T11:05:43.992Z,82.07
2023-05-11T11:08:11.026Z,82.97
2023-05-11T11:10:45.505Z,83.13
2023-05-11T11:13:16.960Z,83.73
2023-05-11T11:15:55.442Z,83.79
2023-05-11T11:18:34.892Z,84.29
2023-05-11T11:21:02.155Z,84.04
2023-05-11T11:23:50.312Z,84.19
2023-05-11T11:26:47.374Z,85.07
2023-05-11T11:29:14.002Z,85.83
2023-05-11T11:31:41.475Z,85.86
2023-05-11T11:34:27.204Z,86.36
2023-05-11T11:37:03.694Z,86.90
2023-05-11T11:39:42.669Z,87.84
2023-05-11T11:42:14.152Z,89.01
2023-05-11T11:44:41.714Z,89.67
2023-05-11T11:47:25.922Z,90.68
2023-05-11T11:49:54.663Z,90.63
2023-05-11T11:52:27.108Z,91.43
2023-05-11T11:54:55.939Z,91.68
2023-05-11T11:57:34.433Z,92.20
2023-05-11T12:00:06.989Z,93.24
2023-05-11T12:02:44.610Z,94.00
2023-05-11T12:05:23.028Z,94.89
2023-05-11T12:07:52.077Z,97.21
2023-05-11T12:10:21.437Z,99.66
2023-05-11T12:12:49.832Z,100.00
2023-05-11T12:15:26.563Z,100.00
2023-05-11T12:17:54.954Z,100.00
2023-05-11T12:20:22.725Z,100.00
2023-05-11T12:22:50.536Z,100.00
2023-05-11T12:25:18.636Z,100.00
2023-05-11T12:28:03.550Z,100.00
2023-05-11T12:30:52.054Z,100.00
2023-05-11T12:33:18.649Z,100.00
2023-05-11T12:35:45.521Z,100.00
2023-05-11T12:38:11.967Z,100.00
2023-05-11T12:40:38.854Z,100.00
2023-05-11T12:43:05.599Z,100.00
2023-05-11T12:45:32.163Z,100.00
2023-05-11T12:47:59.344Z,100.00
2023-05-11T12:50:25.945Z,100.00
2023-05-11T12:52:52.753Z,100.00
2023-05-11T12:55:30.992Z,100.00
2023-05-11T12:58:14.465Z,100.00
2023-05-11T13:00:57.535Z,100.00
2023-05-11T13:03:29.006Z,100.00
2023-05-11T13:06:09.106Z,100.00
2023-05-11T13:08:37.442Z,100.00
2023-05-11T13:11:22.521Z,100.00
2023-05-11T13:13:49.853Z,100.00
2023-05-11T13:16:34.118Z,100.00
2023-05-11T13:19:02.597Z,100.00
2023-05-11T13:21:30.418Z,100.00
2023-05-11T13:23:57.040Z,100.00
2023-05-11T13:26:25.589Z,100.00
2023-05-11T13:29:08.768Z,100.00
2023-05-11T13:31:48.145Z,100.00
2023-05-11T13:34:14.782Z,98.98
2023-05-11T13:36:41.414Z,97.33
2023-05-11T13:39:08.092Z,96.41
2023-05-11T13:41:34.737Z,93.19
2023-05-11T13:44:01.384Z,90.40
2023-05-11T13:46:29.030Z,90.31
2023-05-11T13:48:55.743Z,88.04
2023-05-11T13:51:23.175Z,87.81
2023-05-11T13:53:49.650Z,88.43
2023-05-11T13:56:19.374Z,86.34
2023-05-11T13:58:46.074Z,84.49
2023-05-11T14:01:13.908Z,84.10
2023-05-11T14:03:42.941Z,83.85
2023-05-11T14:06:09.514Z,83.60
2023-05-11T14:08:36.091Z,82.33
2023-05-11T14:11:02.558Z,83.26
2023-05-11T14:13:29.126Z,82.49
2023-05-11T14:15:56.698Z,80.01
2023-05-11T14:18:24.900Z,79.82
2023-05-11T14:20:51.855Z,78.50
2023-05-11T14:23:18.439Z,79.05
2023-05-11T14:25:44.959Z,79.80
2023-05-11T14:28:11.564Z,80.20
2023-05-11T14:30:38.151Z,80.62
2023-05-11T14:33:04.794Z,80.10
2023-05-11T14:35:31.385Z,80.54
2023-05-11T14:37:57.966Z,80.39
2023-05-11T14:40:24.487Z,80.77
2023-05-11T14:42:51.090Z,81.68
2023-05-11T14:45:18.062Z,80.52
2023-05-11T14:47:44.832Z,79.69
2023-05-11T14:50:11.479Z,80.67
2023-05-11T14:52:38.302Z,78.08
2023-05-11T14:55:05.234Z,78.51
2023-05-11T14:57:32.467Z,77.70
2023-05-11T15:00:00.424Z,78.00
2023-05-11T15:02:27.683Z,77.44
2023-05-11T15:04:54.990Z,79.11
2023-05-11T15:07:22.344Z,78.59
2023-05-11T15:09:49.743Z,78.69
2023-05-11T15:12:16.306Z,77.26
2023-05-11T15:14:42.802Z,76.48
2023-05-11T15:17:09.305Z,74.85
2023-05-11T15:19:36.049Z,73.13
2023-05-11T15:22:02.711Z,69.71
2023-05-11T15:24:29.262Z,65.59
2023-05-11T15:26:56.905Z,60.41
2023-05-11T15:29:27.091Z,58.41
2023-05-11T15:31:53.780Z,53.63
2023-05-11T15:34:20.728Z,50.45
2023-05-11T15:36:48.856Z,48.67
2023-05-11T15:39:18.568Z,52.96
2023-05-11T15:41:45.111Z,52.26
2023-05-11T15:44:11.629Z,50.58
2023-05-11T15:46:38.907Z,48.90
2023-05-11T15:49:06.209Z,51.00
2023-05-11T15:51:32.799Z,52.29
2023-05-11T15:53:59.422Z,54.90
2023-05-11T15:56:26.463Z,55.20
2023-05-11T15:58:53.016Z,56.90
2023-05-11T16:01:21.080Z,59.11
2023-05-11T16:03:48.861Z,61.18
2023-05-11T16:06:16.732Z,62.40
2023-05-11T16:08:43.290Z,64.35
2023-05-11T16:11:09.909Z,66.71
2023-05-11T16:13:36.417Z,68.64
2023-05-11T16:16:03.004Z,70.25
2023-05-11T16:18:29.630Z,71.38
2023-05-11T16:20:56.538Z,73.46
2023-05-11T16:23:25.260Z,74.26
2023-05-11T16:25:51.934Z,75.23
2023-05-11T16:28:18.483Z,75.82
2023-05-11T16:30:45.057Z,76.71
2023-05-11T16:33:11.616Z,78.04
2023-05-11T16:35:38.255Z,78.65
2023-05-11T16:38:06.000Z,79.54
2023-05-11T16:40:33.262Z,79.95
2023-05-11T16:42:59.856Z,81.13
2023-05-11T16:45:26.433Z,81.50
2023-05-11T16:47:52.971Z,82.23
2023-05-11T16:50:19.704Z,82.63
2023-05-11T16:52:46.370Z,81.75
2023-05-11T16:55:13.123Z,80.97
2023-05-11T16:57:39.905Z,81.09
2023-05-11T17:00:08.310Z,81.78
2023-05-11T17:02:34.946Z,81.62
2023-05-11T17:05:02.962Z,81.26
2023-05-11T17:07:29.471Z,81.10
2023-05-11T17:09:57.208Z,81.02
2023-05-11T17:12:24.163Z,80.86
2023-05-11T17:14:50.704Z,80.98
2023-05-11T17:17:17.400Z,81.05
2023-05-11T17:19:44.360Z,82.97
2023-05-11T17:22:13.149Z,83.93
2023-05-11T17:24:40.014Z,84.31
2023-05-11T17:27:07.048Z,85.10
2023-05-11T17:29:33.634Z,85.38
2023-05-11T17:32:00.299Z,86.34
2023-05-11T17:34:28.594Z,87.58
2023-05-11T17:36:56.610Z,87.66
2023-05-11T17:39:23.091Z,87.84
2023-05-11T17:41:49.865Z,88.66
2023-05-11T17:44:16.399Z,89.15
2023-05-11T17:46:43.252Z,89.89
2023-05-11T17:49:10.205Z,90.30
2023-05-11T17:51:36.787Z,90.92
2023-05-11T17:54:03.494Z,91.81
2023-05-11T17:56:30.058Z,92.37
2023-05-11T17:58:56.640Z,93.22
2023-05-11T18:01:23.303Z,93.78
2023-05-11T18:03:50.086Z,94.35
2023-05-11T18:06:17.147Z,95.04
2023-05-11T18:08:43.934Z,95.46
2023-05-11T18:11:12.749Z,96.12
2023-05-11T18:13:39.720Z,96.17
2023-05-11T18:16:06.989Z,96.56
2023-05-11T18:18:33.742Z,96.65
2023-05-11T18:21:05.598Z,97.53
2023-05-11T18:23:32.431Z,98.06
2023-05-11T18:25:58.937Z,98.38
2023-05-11T18:28:25.565Z,98.55
2023-05-11T18:30:52.396Z,98.81
2023-05-11T18:33:19.015Z,98.98
2023-05-11T18:35:46.659Z,99.43
2023-05-11T18:38:13.230Z,99.89
2023-05-11T18:40:40.000Z,99.92
2023-05-11T18:43:06.504Z,100.00
2023-05-11T18:45:35.050Z,100.00
2023-05-11T18:48:02.646Z,100.00
2023-05-11T18:50:29.836Z,100.00
2023-05-11T18:52:57.019Z,100.00
2023-05-11T18:55:23.793Z,100.00
2023-05-11T18:57:52.552Z,100.00
2023-05-11T19:00:20.582Z,100.00
2023-05-11T19:02:48.224Z,100.00
2023-05-11T19:05:15.079Z,100.00
2023-05-11T19:07:41.562Z,100.00
2023-05-11T19:10:09.485Z,100.00
2023-05-11T19:12:39.424Z,100.00
2023-05-11T19:15:06.568Z,100.00
2023-05-11T19:17:33.424Z,100.00
2023-05-11T19:19:59.946Z,100.00
2023-05-11T19:22:26.557Z,100.00
2023-05-11T19:24:54.452Z,100.00
2023-05-11T19:27:21.116Z,100.00
2023-05-11T19:29:52.972Z,100.00
2023-05-11T19:32:19.698Z,100.00
2023-05-11T19:34:46.724Z,100.00
2023-05-11T19:37:13.387Z,100.00
2023-05-11T19:39:40.225Z,100.00
2023-05-11T19:42:08.299Z,100.00
2023-05-11T19:44:37.776Z,100.00
2023-05-11T19:47:04.469Z,100.00
2023-05-11T19:49:30.997Z,100.00
2023-05-11T19:51:57.458Z,100.00
2023-05-11T19:54:24.032Z,100.00
2023-05-11T19:56:50.571Z,100.00
2023-05-11T19:59:17.095Z,100.00
2023-05-11T20:01:43.683Z,100.00
2023-05-11T20:04:12.667Z,100.00
2023-05-11T20:06:39.791Z,100.00
2023-05-11T20:09:07.332Z,100.00
2023-05-11T20:11:33.875Z,100.00
2023-05-11T20:14:00.828Z,100.00
2023-05-11T20:16:30.360Z,100.00
2023-05-11T20:18:59.242Z,100.00
2023-05-11T20:21:26.105Z,100.00
2023-05-11T20:23:52.706Z,100.00
2023-05-11T20:26:19.252Z,100.00
2023-05-11T20:28:45.812Z,100.00
2023-05-11T20:31:14.869Z,100.00
2023-05-11T20:36:13.930Z,100.00
2023-05-11T20:38:40.458Z,100.00
2023-05-11T20:41:07.644Z,100.00
2023-05-11T20:43:34.243Z,100.00
2023-05-11T20:46:06.656Z,100.00
2023-05-11T20:48:40.677Z,100.00
2023-05-11T20:51:08.456Z,100.00
2023-05-11T20:53:35.091Z,100.00
2023-05-11T20:56:03.037Z,100.00
2023-05-11T20:58:31.405Z,100.00
2023-05-11T21:00:58.070Z,100.00
2023-05-11T21:03:26.061Z,100.00
2023-05-11T21:05:53.322Z,100.00
2023-05-11T21:08:19.862Z,100.00
2023-05-11T21:10:46.333Z,100.00
2023-05-11T21:13:13.226Z,100.00
2023-05-11T21:15:39.756Z,100.00
2023-05-11T21:18:06.562Z,100.00
2023-05-11T21:20:33.098Z,100.00
2023-05-11T21:23:00.422Z,100.00
2023-05-11T21:25:26.984Z,100.00
2023-05-11T21:27:54.712Z,100.00
2023-05-11T21:30:21.405Z,100.00
2023-05-11T21:32:50.456Z,100.00
2023-05-11T21:35:17.462Z,100.00
2023-05-11T21:37:49.200Z,100.00
2023-05-11T21:40:17.645Z,100.00
2023-05-11T21:42:44.665Z,100.00
2023-05-11T21:45:11.982Z,100.00
2023-05-11T21:47:38.678Z,100.00
2023-05-11T21:50:07.650Z,100.00
2023-05-11T21:52:34.726Z,100.00
2023-05-11T21:55:01.322Z,100.00
2023-05-11T21:57:27.807Z,100.00
2023-05-11T21:59:54.261Z,100.00
2023-05-11T22:02:20.756Z,100.00
2023-05-11T22:04:47.352Z,100.00
2023-05-11T22:07:14.160Z,100.00
2023-05-11T22:09:40.701Z,100.00
2023-05-11T22:12:07.891Z,100.00
2023-05-11T22:14:34.529Z,100.00
2023-05-11T22:17:01.357Z,100.00
2023-05-11T22:19:29.071Z,100.00
2023-05-11T22:21:56.785Z,100.00
2023-05-11T22:24:24.955Z,100.00
2023-05-11T22:26:51.867Z,100.00
2023-05-11T22:29:18.423Z,100.00
2023-05-11T22:31:46.194Z,100.00
2023-05-11T22:34:13.097Z,100.00
2023-05-11T22:36:39.745Z,100.00
2023-05-11T22:39:06.333Z,100.00
2023-05-11T22:41:32.896Z,100.00
2023-05-11T22:44:00.010Z,100.00
2023-05-11T22:46:26.590Z,100.00
2023-05-11T22:48:53.325Z,100.00
2023-05-11T22:51:19.847Z,100.00
2023-05-11T22:53:46.378Z,100.00
2023-05-11T22:56:12.884Z,100.00
2023-05-11T22:58:39.439Z,100.00
2023-05-11T23:01:06.316Z,100.00
2023-05-11T23:03:34.462Z,100.00
2023-05-11T23:06:01.109Z,100.00
2023-05-11T23:08:27.630Z,100.00
2023-05-11T23:10:54.157Z,100.00
2023-05-11T23:13:22.812Z,100.00
2023-05-11T23:15:49.369Z,100.00
2023-05-11T23:18:16.011Z,100.00
2023-05-11T23:20:42.579Z,100.00
2023-05-11T23:23:09.275Z,100.00
2023-05-11T23:25:35.877Z,100.00
2023-05-11T23:28:02.431Z,100.00
2023-05-11T23:30:28.907Z,100.00
2023-05-11T23:32:55.500Z,100.00
2023-05-11T23:35:22.018Z,100.00
2023-05-11T23:37:48.572Z,100.00
2023-05-11T23:40:15.195Z,100.00
2023-05-11T23:42:41.664Z,100.00
2023-05-11T23:45:08.690Z,100.00
2023-05-11T23:47:36.378Z,100.00
2023-05-11T23:50:03.065Z,100.00
2023-05-11T23:52:29.780Z,100.00
2023-05-11T23:54:56.423Z,100.00
2023-05-11T23:57:22.901Z,100.00
2023-05-11T23:59:49.629Z,100.00
